Harrisburg, Texas
Current Conditions -  °F | °C
As of 2:35 AM on Sunday 23 Nov 2014 (Local Time) from KJAS Reporting Station
Heavy Rain Heavy Rain  
Wind Chill: 63°   Ceiling: 3400
Heat Index: 63°   Visibility: 4mi
Dew Point: 62°   Wind: 6mph
Humidity: 96%   Direction: 120°ESE
Pressure: 29.72"   Gusts: NA
Location:  30.9529°N, 94.0707°W
Report Text: KJAS 230835Z AUTO 12005KT 4SM +RA SCT005 SCT022 OVC034 17/17 A2972 RMK AO2 P0019 T01720165
Loading
Personal Weather Stations






























Interactive Weather Map New forecast layout! Learn more

10-Day Weather Forecast

Advertisements
Track Severe Weather on mobile